createdAt,value
2018-06-30T00:00:32.000Z,49.5
2018-06-30T00:10:32.000Z,51.1
2018-06-30T00:20:32.000Z,51.8
2018-06-30T00:30:33.000Z,52.3
2018-06-30T00:40:32.000Z,52.5
2018-06-30T00:50:32.000Z,52.8
2018-06-30T01:00:32.000Z,53
2018-06-30T01:10:32.000Z,53.1
2018-06-30T01:20:32.000Z,53.4
2018-06-30T01:30:32.000Z,53
2018-06-30T01:40:32.000Z,52.9
2018-06-30T02:00:32.000Z,52.5
2018-06-30T02:10:32.000Z,52.5
2018-06-30T02:20:32.000Z,52.5
2018-06-30T02:30:32.000Z,52.2
2018-06-30T02:40:32.000Z,52.1
2018-06-30T02:50:32.000Z,54
2018-06-30T03:00:32.000Z,52.7
2018-06-30T03:10:32.000Z,52.3
2018-06-30T03:20:32.000Z,52.4
2018-06-30T03:30:32.000Z,52
2018-06-30T03:40:32.000Z,51.9
2018-06-30T03:50:32.000Z,51.9
2018-06-30T04:00:32.000Z,51.8
2018-06-30T04:10:32.000Z,51.5
2018-06-30T04:20:32.000Z,51.6
2018-06-30T04:30:32.000Z,51.3
2018-06-30T04:40:32.000Z,51
2018-06-30T04:50:32.000Z,50.8
2018-06-30T05:00:32.000Z,50.4
2018-06-30T05:10:32.000Z,50
2018-06-30T05:20:32.000Z,49.7
2018-06-30T05:30:32.000Z,48.6
2018-06-30T05:40:32.000Z,47.9
2018-06-30T05:50:33.000Z,48.6
2018-06-30T06:00:33.000Z,48.9
2018-06-30T06:10:35.000Z,48.6
2018-06-30T06:20:33.000Z,48.3
2018-06-30T06:30:33.000Z,48.1
2018-06-30T06:40:33.000Z,47.9
2018-06-30T06:50:33.000Z,47.5
2018-06-30T07:00:33.000Z,47.6
2018-06-30T07:10:33.000Z,47.2
2018-06-30T07:20:33.000Z,47.6
2018-06-30T07:30:33.000Z,48
2018-06-30T07:40:33.000Z,48.9
2018-06-30T07:50:33.000Z,48.6
2018-06-30T08:00:33.000Z,48.3
2018-06-30T08:10:33.000Z,48.1
2018-06-30T08:20:33.000Z,48.2
2018-06-30T08:30:33.000Z,48.1
2018-06-30T08:40:33.000Z,47.2
2018-06-30T08:50:33.000Z,40.4
2018-06-30T09:00:33.000Z,42.6
2018-06-30T09:10:33.000Z,42.9
2018-06-30T09:20:33.000Z,43.3
2018-06-30T09:30:33.000Z,42.5
2018-06-30T09:40:33.000Z,42.5
2018-06-30T09:50:33.000Z,42.4
2018-06-30T10:00:33.000Z,42.3
2018-06-30T10:10:33.000Z,42.2
2018-06-30T10:20:33.000Z,42.5
2018-06-30T10:30:33.000Z,42.8
2018-06-30T10:40:33.000Z,42.4
2018-06-30T10:50:33.000Z,42.1
2018-06-30T11:00:33.000Z,41.3
2018-06-30T11:10:33.000Z,41.2
2018-06-30T11:20:33.000Z,41.1
2018-06-30T11:30:33.000Z,40.7
2018-06-30T11:40:33.000Z,39.9
2018-06-30T11:50:33.000Z,38.9
2018-06-30T12:00:33.000Z,35.3
2018-06-30T12:10:33.000Z,37
2018-06-30T12:20:33.000Z,36
2018-06-30T12:30:33.000Z,36
2018-06-30T12:40:37.000Z,37.7
2018-06-30T12:50:34.000Z,38.9
2018-06-30T13:00:34.000Z,39.4
2018-06-30T13:10:34.000Z,39.7
2018-06-30T13:20:34.000Z,39.5
2018-06-30T13:30:34.000Z,39.8
2018-06-30T13:40:34.000Z,40.2
2018-06-30T13:50:34.000Z,40.3
2018-06-30T14:00:34.000Z,40.4
2018-06-30T14:10:34.000Z,40.6
2018-06-30T14:20:34.000Z,40.6
2018-06-30T14:30:34.000Z,40
2018-06-30T14:40:34.000Z,39.5
2018-06-30T14:50:34.000Z,39.5
2018-06-30T15:00:34.000Z,39.3
2018-06-30T15:10:34.000Z,38.4
2018-06-30T15:20:34.000Z,38.4
2018-06-30T15:30:34.000Z,38
2018-06-30T15:40:34.000Z,38
2018-06-30T15:50:34.000Z,37.9
2018-06-30T16:00:34.000Z,37.1
2018-06-30T16:10:34.000Z,37.5
2018-06-30T16:20:34.000Z,38.3
2018-06-30T16:30:34.000Z,37.6
2018-06-30T16:50:34.000Z,37
2018-06-30T17:00:34.000Z,34.6
2018-06-30T17:10:34.000Z,34.4
2018-06-30T17:20:34.000Z,35.8
2018-06-30T17:30:34.000Z,34.4
2018-06-30T17:40:34.000Z,34.6
2018-06-30T17:50:34.000Z,34.5
2018-06-30T18:00:34.000Z,34.2
2018-06-30T18:10:34.000Z,34.9
2018-06-30T18:20:34.000Z,35.1
2018-06-30T18:30:34.000Z,35.4
2018-06-30T18:40:34.000Z,35.7
2018-06-30T18:50:34.000Z,36.1
2018-06-30T19:00:34.000Z,36.3
2018-06-30T19:10:34.000Z,36.7
2018-06-30T19:20:34.000Z,36.8
2018-06-30T19:30:36.000Z,36.8
2018-06-30T19:40:35.000Z,36.8
2018-06-30T19:50:35.000Z,36.7
2018-06-30T20:00:35.000Z,33.2
2018-06-30T20:10:35.000Z,31.2
2018-06-30T20:20:35.000Z,30.8
2018-06-30T20:30:35.000Z,30.1
2018-06-30T20:40:35.000Z,29.1
2018-06-30T20:50:35.000Z,29.6
2018-06-30T21:00:35.000Z,30.4
2018-06-30T21:10:35.000Z,29.6
2018-06-30T21:20:35.000Z,29.7
2018-06-30T21:30:35.000Z,29.8
2018-06-30T21:40:35.000Z,29.7
2018-06-30T21:50:35.000Z,30.6
2018-06-30T22:00:35.000Z,32.2
2018-06-30T22:10:35.000Z,31.4
2018-06-30T22:20:35.000Z,31.2
2018-06-30T22:30:35.000Z,31.5
2018-06-30T22:40:35.000Z,31.5
2018-06-30T22:50:35.000Z,31.8
2018-06-30T23:00:35.000Z,31.9
2018-06-30T23:10:35.000Z,32
2018-06-30T23:20:35.000Z,32
2018-06-30T23:30:35.000Z,31.9
2018-06-30T23:40:35.000Z,31.9
2018-06-30T23:50:35.000Z,31.8
